createdAt,value
2022-09-06T00:02:21.988Z,100393.00
2022-09-06T00:04:49.722Z,100395.03
2022-09-06T00:07:17.099Z,100392.94
2022-09-06T00:09:44.340Z,100388.53
2022-09-06T00:12:11.871Z,100395.16
2022-09-06T00:14:39.120Z,100389.69
2022-09-06T00:17:06.290Z,100388.09
2022-09-06T00:19:33.778Z,100388.16
2022-09-06T00:22:00.939Z,100389.19
2022-09-06T00:24:28.162Z,100397.22
2022-09-06T00:26:58.792Z,100391.97
2022-09-06T00:29:26.047Z,100397.34
2022-09-06T00:31:53.504Z,100399.13
2022-09-06T00:34:20.992Z,100402.81
2022-09-06T00:36:48.244Z,100404.34
2022-09-06T00:39:15.489Z,100401.22
2022-09-06T00:41:42.973Z,100395.63
2022-09-06T00:44:10.195Z,100404.50
2022-09-06T00:46:37.709Z,100400.16
2022-09-06T00:49:06.115Z,100399.63
2022-09-06T00:51:34.421Z,100396.87
2022-09-06T00:54:05.565Z,100394.19
2022-09-06T00:56:33.595Z,100391.12
2022-09-06T00:59:01.519Z,100395.97
2022-09-06T01:01:28.869Z,100394.72
2022-09-06T01:03:56.360Z,100394.56
2022-09-06T01:06:24.961Z,100404.66
2022-09-06T01:08:58.630Z,100399.87
2022-09-06T01:11:32.138Z,100396.06
2022-09-06T01:14:02.058Z,100391.16
2022-09-06T01:16:39.680Z,100395.66
2022-09-06T01:19:06.801Z,100391.50
2022-09-06T01:21:37.017Z,100398.19
2022-09-06T01:24:25.384Z,100402.13
2022-09-06T01:26:53.116Z,100402.13
2022-09-06T01:29:29.107Z,100390.94
2022-09-06T01:32:03.578Z,100387.69
2022-09-06T01:34:32.765Z,100384.47
2022-09-06T01:37:10.205Z,100389.03
2022-09-06T01:39:38.188Z,100388.03
2022-09-06T01:42:07.319Z,100381.03
2022-09-06T01:44:34.480Z,100386.72
2022-09-06T01:47:01.774Z,100391.94
2022-09-06T01:49:47.699Z,100396.94
2022-09-06T01:52:17.533Z,100388.94
2022-09-06T01:55:08.293Z,100391.75
2022-09-06T01:57:35.451Z,100383.06
2022-09-06T02:00:09.913Z,100379.53
2022-09-06T02:02:59.616Z,100382.97
2022-09-06T02:05:36.667Z,100381.34
2022-09-06T02:08:06.783Z,100389.78
2022-09-06T02:10:36.811Z,100388.66
2022-09-06T02:13:04.681Z,100386.84
2022-09-06T02:15:35.905Z,100383.37
2022-09-06T02:18:08.616Z,100381.84
2022-09-06T02:20:36.959Z,100378.88
2022-09-06T02:23:05.584Z,100381.72
2022-09-06T02:25:34.614Z,100380.75
2022-09-06T02:28:01.894Z,100377.25
2022-09-06T02:30:29.350Z,100375.50
2022-09-06T02:32:58.157Z,100376.47
2022-09-06T02:35:25.594Z,100381.22
2022-09-06T02:37:53.077Z,100367.72
2022-09-06T02:40:20.264Z,100377.44
2022-09-06T02:42:47.434Z,100372.66
2022-09-06T02:45:15.311Z,100370.53
2022-09-06T02:47:42.519Z,100378.59
2022-09-06T02:50:09.869Z,100370.47
2022-09-06T02:52:37.389Z,100372.06
2022-09-06T02:55:04.825Z,100375.00
2022-09-06T02:57:32.019Z,100376.75
2022-09-06T02:59:59.452Z,100368.72
2022-09-06T03:02:26.715Z,100364.41
2022-09-06T03:04:53.946Z,100360.25
2022-09-06T03:07:21.426Z,100363.75
2022-09-06T03:09:48.657Z,100364.72
2022-09-06T03:12:15.858Z,100364.72
2022-09-06T03:14:44.324Z,100366.41
2022-09-06T03:17:11.597Z,100363.94
2022-09-06T03:19:38.795Z,100359.56
2022-09-06T03:22:06.232Z,100361.00
2022-09-06T03:24:33.693Z,100360.44
2022-09-06T03:27:01.025Z,100364.66
2022-09-06T03:29:28.495Z,100360.97
2022-09-06T03:31:55.713Z,100361.19
2022-09-06T03:34:22.908Z,100368.19
2022-09-06T03:36:50.391Z,100368.38
2022-09-06T03:39:17.681Z,100369.94
2022-09-06T03:41:44.885Z,100364.72
2022-09-06T03:44:12.328Z,100357.56
2022-09-06T03:46:39.668Z,100368.44
2022-09-06T03:49:08.147Z,100361.50
2022-09-06T03:51:35.863Z,100366.75
2022-09-06T03:54:03.043Z,100372.09
2022-09-06T03:56:30.209Z,100372.34
2022-09-06T03:58:57.687Z,100369.75
2022-09-06T04:01:25.228Z,100370.41
2022-09-06T04:03:52.715Z,100369.53
2022-09-06T04:06:20.022Z,100368.41
2022-09-06T04:08:47.176Z,100370.25
2022-09-06T04:11:16.036Z,100372.06
2022-09-06T04:13:44.624Z,100366.94
2022-09-06T04:16:11.925Z,100367.66
2022-09-06T04:18:39.772Z,100361.47
2022-09-06T04:21:06.957Z,100367.97
2022-09-06T04:23:37.754Z,100370.75
2022-09-06T04:26:07.332Z,100368.59
2022-09-06T04:28:34.515Z,100378.12
2022-09-06T04:31:04.966Z,100377.44
2022-09-06T04:33:33.605Z,100380.16
2022-09-06T04:36:01.201Z,100377.56
2022-09-06T04:38:29.278Z,100381.91
2022-09-06T04:40:56.864Z,100382.84
2022-09-06T04:43:24.473Z,100370.38
2022-09-06T04:45:51.820Z,100375.91
2022-09-06T04:48:19.397Z,100372.06
2022-09-06T04:50:46.613Z,100373.00
2022-09-06T04:53:13.781Z,100369.56
2022-09-06T04:55:41.301Z,100374.72
2022-09-06T04:58:08.473Z,100365.94
2022-09-06T05:00:36.468Z,100367.69
2022-09-06T05:03:03.935Z,100365.00
2022-09-06T05:05:31.109Z,100359.69
2022-09-06T05:07:58.461Z,100363.19
2022-09-06T05:10:26.074Z,100369.22
2022-09-06T05:12:53.894Z,100371.91
2022-09-06T05:15:21.547Z,100371.97
2022-09-06T05:17:49.008Z,100378.28
2022-09-06T05:20:16.250Z,100368.41
2022-09-06T05:22:43.457Z,100365.13
2022-09-06T05:25:10.943Z,100372.78
2022-09-06T05:27:38.182Z,100375.38
2022-09-06T05:30:05.494Z,100376.91
2022-09-06T05:32:32.927Z,100369.88
2022-09-06T05:35:00.102Z,100371.38
2022-09-06T05:37:27.597Z,100367.06
2022-09-06T05:39:55.116Z,100365.97
2022-09-06T05:42:22.897Z,100367.59
2022-09-06T05:44:50.394Z,100370.00
2022-09-06T05:47:18.501Z,100372.56
2022-09-06T05:49:46.312Z,100382.09
2022-09-06T05:52:14.505Z,100376.84
2022-09-06T05:54:42.005Z,100373.25
2022-09-06T05:57:09.445Z,100367.97
2022-09-06T05:59:36.877Z,100366.13
2022-09-06T06:02:07.364Z,100361.72
2022-09-06T06:04:35.171Z,100372.31
2022-09-06T06:07:02.393Z,100378.63
2022-09-06T06:09:29.550Z,100373.25
2022-09-06T06:11:56.995Z,100367.81
2022-09-06T06:14:24.182Z,100367.75
2022-09-06T06:16:52.030Z,100364.16
2022-09-06T06:19:19.652Z,100367.47
2022-09-06T06:21:46.866Z,100360.28
2022-09-06T06:24:14.058Z,100366.41
2022-09-06T06:26:41.517Z,100359.25
2022-09-06T06:29:09.738Z,100363.66
2022-09-06T06:31:38.016Z,100365.00
2022-09-06T06:34:05.836Z,100373.34
2022-09-06T06:36:33.975Z,100377.91
2022-09-06T06:39:01.872Z,100369.09
2022-09-06T06:41:30.259Z,100366.34
2022-09-06T06:43:58.676Z,100366.06
2022-09-06T06:46:30.076Z,100371.09
2022-09-06T06:48:57.559Z,100372.41
2022-09-06T06:51:25.592Z,100371.63
2022-09-06T06:53:52.851Z,100381.75
2022-09-06T06:56:21.187Z,100379.19
2022-09-06T06:58:49.127Z,100392.56
2022-09-06T07:01:16.954Z,100379.50
2022-09-06T07:03:45.032Z,100389.13
2022-09-06T07:06:12.953Z,100388.97
2022-09-06T07:08:40.723Z,100385.41
2022-09-06T07:11:10.034Z,100389.25
2022-09-06T07:13:38.037Z,100387.81
2022-09-06T07:16:15.676Z,100390.94
2022-09-06T07:18:43.446Z,100383.31
2022-09-06T07:26:31.749Z,100396.06
2022-09-06T07:29:00.039Z,100398.53
2022-09-06T07:34:15.350Z,100389.63
2022-09-06T07:36:42.835Z,100393.44
2022-09-06T07:39:10.083Z,100387.66
2022-09-06T07:41:37.353Z,100390.59
2022-09-06T07:44:05.030Z,100390.53
2022-09-06T07:46:32.245Z,100395.34
2022-09-06T07:48:59.469Z,100394.06
2022-09-06T07:51:26.918Z,100385.41
2022-09-06T07:54:12.922Z,100392.56
2022-09-06T07:56:43.358Z,100396.16
2022-09-06T07:59:10.535Z,100400.94
2022-09-06T08:01:38.427Z,100391.75
2022-09-06T08:04:08.630Z,100391.91
2022-09-06T08:09:25.163Z,100398.97
2022-09-06T08:11:55.819Z,100396.69
2022-09-06T08:14:23.162Z,100400.81
2022-09-06T08:16:50.665Z,100400.72
2022-09-06T08:19:18.576Z,100385.50
2022-09-06T08:21:45.796Z,100392.72
2022-09-06T08:24:13.402Z,100384.22
2022-09-06T08:26:42.403Z,100384.16
2022-09-06T08:29:10.110Z,100388.81
2022-09-06T08:31:38.949Z,100380.56
2022-09-06T08:34:06.375Z,100380.94
2022-09-06T08:36:33.538Z,100377.53
2022-09-06T08:39:01.682Z,100376.78
2022-09-06T08:41:41.320Z,100372.44
2022-09-06T08:47:16.858Z,100366.84
2022-09-06T08:50:07.308Z,100371.69
2022-09-06T08:52:41.784Z,100376.16
2022-09-06T08:55:15.781Z,100375.16
2022-09-06T08:58:21.719Z,100367.88
2022-09-06T09:00:50.985Z,100365.72
2022-09-06T09:03:19.205Z,100362.75
2022-09-06T09:05:50.313Z,100354.41
2022-09-06T09:08:27.242Z,100362.75
2022-09-06T09:11:00.478Z,100357.09
2022-09-06T09:13:33.192Z,100360.34
2022-09-06T09:16:00.536Z,100353.88
2022-09-06T09:18:28.873Z,100353.13
2022-09-06T09:20:56.173Z,100341.87
2022-09-06T09:23:23.413Z,100336.41
2022-09-06T09:25:52.757Z,100335.56
2022-09-06T09:28:20.532Z,100328.84
2022-09-06T09:30:50.060Z,100338.84
2022-09-06T09:33:38.772Z,100330.12
2022-09-06T09:36:10.471Z,100322.47
2022-09-06T09:38:49.250Z,100325.13
2022-09-06T09:41:29.097Z,100319.44
2022-09-06T09:44:01.075Z,100319.88
2022-09-06T09:46:34.918Z,100314.69
2022-09-06T09:49:04.081Z,100311.06
2022-09-06T09:51:32.278Z,100308.00
2022-09-06T09:54:00.601Z,100299.56
2022-09-06T09:56:33.650Z,100297.03
2022-09-06T09:59:00.837Z,100302.34
2022-09-06T10:01:31.679Z,100294.81
2022-09-06T10:09:40.252Z,100291.00
2022-09-06T10:12:07.570Z,100284.94
2022-09-06T10:14:42.178Z,100278.44
2022-09-06T10:17:09.382Z,100278.84
2022-09-06T10:19:37.453Z,100279.09
2022-09-06T10:22:12.625Z,100276.25
2022-09-06T10:24:42.842Z,100273.00
2022-09-06T10:27:10.029Z,100260.59
2022-09-06T10:29:56.168Z,100274.69
2022-09-06T10:32:31.148Z,100264.56
2022-09-06T10:35:13.731Z,100264.81
2022-09-06T10:37:50.041Z,100258.00
2022-09-06T10:40:21.367Z,100253.13
2022-09-06T10:42:50.448Z,100247.19
2022-09-06T10:45:20.589Z,100237.37
2022-09-06T10:48:04.745Z,100243.53
2022-09-06T10:50:35.374Z,100243.91
2022-09-06T10:53:06.667Z,100245.97
2022-09-06T10:55:35.200Z,100249.81
2022-09-06T10:58:20.719Z,100249.75
2022-09-06T11:01:07.732Z,100248.06
2022-09-06T11:06:25.523Z,100254.34
2022-09-06T11:09:13.920Z,100251.78
2022-09-06T11:11:51.689Z,100241.91
2022-09-06T11:14:18.855Z,100241.38
2022-09-06T11:16:54.033Z,100247.37
2022-09-06T11:19:22.628Z,100235.34
2022-09-06T11:21:54.321Z,100237.25
2022-09-06T11:24:21.465Z,100230.25
2022-09-06T11:27:21.188Z,100228.94
2022-09-06T11:29:52.048Z,100227.25
2022-09-06T11:32:25.473Z,100222.81
2022-09-06T11:34:56.806Z,100219.31
2022-09-06T11:37:34.104Z,100225.34
2022-09-06T11:40:30.387Z,100216.59
2022-09-06T11:42:59.417Z,100210.69
2022-09-06T11:45:46.167Z,100218.19
2022-09-06T11:48:35.468Z,100202.34
2022-09-06T11:51:02.971Z,100207.06
2022-09-06T11:53:50.353Z,100200.00
2022-09-06T11:56:44.056Z,100196.59
2022-09-06T11:59:20.466Z,100194.25
2022-09-06T12:01:53.996Z,100185.13
2022-09-06T12:04:21.898Z,100187.03
2022-09-06T12:07:08.585Z,100178.69
2022-09-06T12:09:36.879Z,100177.62
2022-09-06T12:12:04.282Z,100182.22
2022-09-06T12:14:34.581Z,100166.78
2022-09-06T12:17:04.747Z,100174.38
2022-09-06T12:19:44.396Z,100176.47
2022-09-06T12:22:27.616Z,100171.03
2022-09-06T12:24:55.859Z,100174.56
2022-09-06T12:27:24.169Z,100157.75
2022-09-06T12:29:55.075Z,100154.06
2022-09-06T12:32:24.419Z,100148.22
2022-09-06T12:37:49.567Z,100141.03
2022-09-06T12:40:18.707Z,100132.44
2022-09-06T12:42:47.329Z,100140.31
2022-09-06T12:45:14.491Z,100140.62
2022-09-06T12:47:41.722Z,100124.78
2022-09-06T12:50:15.126Z,100126.16
2022-09-06T12:52:55.877Z,100130.44
2022-09-06T12:55:27.807Z,100124.53
2022-09-06T12:57:56.420Z,100112.97
2022-09-06T13:00:24.782Z,100111.94
2022-09-06T13:02:57.583Z,100104.69
2022-09-06T13:05:25.220Z,100095.63
2022-09-06T13:07:54.309Z,100104.00
2022-09-06T13:10:22.533Z,100100.63
2022-09-06T13:12:50.880Z,100097.06
2022-09-06T13:15:19.669Z,100091.69
2022-09-06T13:17:47.305Z,100088.91
2022-09-06T13:20:16.018Z,100084.25
2022-09-06T13:22:47.443Z,100091.94
2022-09-06T13:25:33.593Z,100084.69
2022-09-06T13:28:02.358Z,100093.50
2022-09-06T13:30:32.925Z,100079.19
2022-09-06T13:33:00.246Z,100072.91
2022-09-06T13:35:31.761Z,100074.37
2022-09-06T13:38:17.994Z,100066.22
2022-09-06T13:41:09.856Z,100060.06
2022-09-06T13:43:40.318Z,100055.31
2022-09-06T13:46:08.213Z,100045.94
2022-09-06T13:48:35.967Z,100044.25
2022-09-06T13:51:03.765Z,100050.47
2022-09-06T13:53:31.765Z,100044.66
2022-09-06T13:55:59.267Z,100043.31
2022-09-06T13:58:26.527Z,100041.59
2022-09-06T14:00:54.070Z,100037.19
2022-09-06T14:03:22.944Z,100038.53
2022-09-06T14:05:50.504Z,100044.19
2022-09-06T14:08:17.676Z,100025.25
2022-09-06T14:10:47.302Z,100042.25
2022-09-06T14:13:15.352Z,100034.91
2022-09-06T14:15:42.652Z,100032.03
2022-09-06T14:18:14.235Z,100024.13
2022-09-06T14:20:42.008Z,100028.66
2022-09-06T14:23:09.448Z,100036.06
2022-09-06T14:25:37.706Z,100030.19
2022-09-06T14:28:04.940Z,100026.03
2022-09-06T14:30:32.435Z,100021.59
2022-09-06T14:32:59.678Z,100027.28
2022-09-06T14:35:27.922Z,100027.19
2022-09-06T14:37:55.673Z,100016.44
2022-09-06T14:40:22.923Z,100020.88
2022-09-06T14:42:50.768Z,100016.03
2022-09-06T14:45:18.578Z,100017.53
2022-09-06T14:47:47.376Z,100016.56
2022-09-06T14:50:14.646Z,100020.75
2022-09-06T14:52:42.103Z,100024.44
2022-09-06T14:55:09.456Z,100021.72
2022-09-06T14:57:36.626Z,100015.34
2022-09-06T15:00:08.131Z,100014.91
2022-09-06T15:02:35.689Z,100034.94
2022-09-06T15:05:02.942Z,100038.75
2022-09-06T15:07:31.385Z,100056.19
2022-09-06T15:09:59.166Z,100059.97
2022-09-06T15:12:26.378Z,100072.41
2022-09-06T15:14:53.864Z,100086.88
2022-09-06T15:17:21.264Z,100108.94
2022-09-06T15:19:49.032Z,100123.78
2022-09-06T15:22:16.512Z,100138.56
2022-09-06T15:24:43.776Z,100133.44
2022-09-06T15:27:10.976Z,100123.69
2022-09-06T15:29:38.980Z,100102.94
2022-09-06T15:32:07.321Z,100081.34
2022-09-06T15:34:35.514Z,100063.22
2022-09-06T15:37:02.957Z,100051.63
2022-09-06T15:39:30.179Z,100041.72
2022-09-06T15:41:58.716Z,100041.88
2022-09-06T15:44:26.634Z,100050.06
2022-09-06T15:46:54.833Z,100037.66
2022-09-06T15:49:28.080Z,100041.00
2022-09-06T15:51:57.115Z,100045.41
2022-09-06T15:54:44.229Z,100045.69
2022-09-06T15:57:12.521Z,100041.69
2022-09-06T15:59:39.965Z,100041.59
2022-09-06T16:02:07.745Z,100051.13
2022-09-06T16:04:35.277Z,100054.16
2022-09-06T16:07:02.455Z,100053.87
2022-09-06T16:09:29.615Z,100055.75
2022-09-06T16:11:57.681Z,100054.16
2022-09-06T16:14:25.280Z,100059.72
2022-09-06T16:16:54.843Z,100058.28
2022-09-06T16:19:22.486Z,100060.31
2022-09-06T16:21:49.936Z,100071.69
2022-09-06T16:24:18.170Z,100071.81
2022-09-06T16:26:46.643Z,100079.91
2022-09-06T16:29:14.530Z,100088.22
2022-09-06T16:31:41.755Z,100076.69
2022-09-06T16:34:09.888Z,100066.69
2022-09-06T16:36:37.350Z,100068.88
2022-09-06T16:39:04.696Z,100061.53
2022-09-06T16:41:40.615Z,100061.97
2022-09-06T16:44:08.635Z,100057.69
2022-09-06T16:46:36.256Z,100054.94
2022-09-06T16:49:04.591Z,100058.34
2022-09-06T16:51:32.310Z,100061.00
2022-09-06T16:54:00.166Z,100058.81
2022-09-06T16:56:28.669Z,100056.47
2022-09-06T16:58:56.899Z,100057.94
2022-09-06T17:01:25.062Z,100064.78
2022-09-06T17:03:52.466Z,100063.38
2022-09-06T17:06:20.385Z,100069.53
2022-09-06T17:08:47.905Z,100079.06
2022-09-06T17:11:20.149Z,100086.69
2022-09-06T17:13:48.309Z,100090.12
2022-09-06T17:16:34.342Z,100101.34
2022-09-06T17:19:02.382Z,100101.53
2022-09-06T17:21:29.798Z,100098.59
2022-09-06T17:24:03.805Z,100100.63
2022-09-06T17:26:31.745Z,100101.84
2022-09-06T17:28:59.243Z,100099.25
2022-09-06T17:31:26.557Z,100097.41
2022-09-06T17:33:54.217Z,100092.31
2022-09-06T17:36:23.833Z,100088.22
2022-09-06T17:38:53.725Z,100087.13
2022-09-06T17:41:21.680Z,100087.94
2022-09-06T17:43:49.151Z,100091.19
2022-09-06T17:46:16.647Z,100093.25
2022-09-06T17:48:44.289Z,100094.00
2022-09-06T17:51:11.664Z,100098.69
2022-09-06T17:53:39.026Z,100082.31
2022-09-06T17:56:09.469Z,100086.59
2022-09-06T17:58:37.430Z,100083.25
2022-09-06T18:01:14.326Z,100091.66
2022-09-06T18:03:42.862Z,100091.53
2022-09-06T18:06:11.224Z,100101.81
2022-09-06T18:08:39.815Z,100097.19
2022-09-06T18:11:11.480Z,100079.12
2022-09-06T18:13:39.147Z,100087.53
2022-09-06T18:16:06.936Z,100080.06
2022-09-06T18:18:34.666Z,100083.12
2022-09-06T18:21:03.106Z,100083.50
2022-09-06T18:23:32.200Z,100096.62
2022-09-06T18:26:00.622Z,100088.09
2022-09-06T18:28:28.600Z,100096.91
2022-09-06T18:31:15.944Z,100114.25
2022-09-06T18:33:43.530Z,100117.88
2022-09-06T18:36:13.648Z,100118.75
2022-09-06T18:38:45.494Z,100117.88
2022-09-06T18:41:33.930Z,100121.13
2022-09-06T18:44:03.212Z,100118.72
2022-09-06T18:46:31.253Z,100111.06
2022-09-06T18:48:58.926Z,100105.16
2022-09-06T18:51:26.661Z,100106.28
2022-09-06T18:53:55.956Z,100104.72
2022-09-06T18:56:24.490Z,100103.66
2022-09-06T18:58:59.267Z,100093.75
2022-09-06T19:01:29.478Z,100099.31
2022-09-06T19:03:57.833Z,100095.00
2022-09-06T19:06:25.827Z,100087.25
2022-09-06T19:08:54.303Z,100103.09
2022-09-06T19:11:22.140Z,100101.47
2022-09-06T19:13:50.806Z,100112.25
2022-09-06T19:16:19.250Z,100100.69
2022-09-06T19:18:47.039Z,100106.00
2022-09-06T19:21:15.777Z,100107.84
2022-09-06T19:23:45.443Z,100109.22
2022-09-06T19:26:20.232Z,100102.81
2022-09-06T19:28:55.786Z,100115.09
2022-09-06T19:31:25.400Z,100109.44
2022-09-06T19:33:53.876Z,100096.94
2022-09-06T19:36:21.689Z,100102.44
2022-09-06T19:39:02.929Z,100100.09
2022-09-06T19:41:32.365Z,100093.69
2022-09-06T19:44:00.500Z,100105.56
2022-09-06T19:46:28.309Z,100092.75
2022-09-06T19:48:56.523Z,100091.37
2022-09-06T19:51:24.863Z,100093.78
2022-09-06T19:53:53.527Z,100085.84
2022-09-06T19:56:23.634Z,100084.53
2022-09-06T19:58:55.577Z,100075.47
2022-09-06T20:01:24.007Z,100078.91
2022-09-06T20:03:52.343Z,100080.75
2022-09-06T20:06:19.743Z,100069.69
2022-09-06T20:08:49.867Z,100069.50
2022-09-06T20:11:19.006Z,100069.69
2022-09-06T20:13:47.817Z,100077.09
2022-09-06T20:16:16.518Z,100075.38
2022-09-06T20:18:44.598Z,100068.47
2022-09-06T20:21:14.209Z,100078.72
2022-09-06T20:23:41.733Z,100069.91
2022-09-06T20:26:10.570Z,100075.28
2022-09-06T20:28:38.239Z,100072.00
2022-09-06T20:31:06.507Z,100073.12
2022-09-06T20:33:34.536Z,100068.78
2022-09-06T20:36:03.398Z,100072.22
2022-09-06T20:38:31.880Z,100074.75
2022-09-06T20:41:03.794Z,100081.16
2022-09-06T20:43:36.796Z,100081.06
2022-09-06T20:46:05.936Z,100073.88
2022-09-06T20:48:33.852Z,100072.69
2022-09-06T20:51:02.183Z,100078.34
2022-09-06T20:53:30.181Z,100086.75
2022-09-06T20:55:58.474Z,100084.22
2022-09-06T20:58:26.721Z,100083.97
2022-09-06T21:00:54.719Z,100087.94
2022-09-06T21:03:22.121Z,100083.84
2022-09-06T21:05:49.457Z,100076.31
2022-09-06T21:08:17.373Z,100082.53
2022-09-06T21:10:44.598Z,100076.56
2022-09-06T21:13:12.089Z,100079.75
2022-09-06T21:15:41.087Z,100068.75
2022-09-06T21:18:08.761Z,100076.81
2022-09-06T21:20:36.061Z,100072.28
2022-09-06T21:23:03.584Z,100070.53
2022-09-06T21:25:31.204Z,100073.75
2022-09-06T21:27:58.431Z,100068.66
2022-09-06T21:30:25.952Z,100066.75
2022-09-06T21:32:53.715Z,100063.47
2022-09-06T21:35:20.884Z,100070.28
2022-09-06T21:37:48.519Z,100066.72
2022-09-06T21:40:19.060Z,100059.91
2022-09-06T21:42:46.314Z,100058.66
2022-09-06T21:45:13.789Z,100068.47
2022-09-06T21:47:41.418Z,100065.44
2022-09-06T21:50:08.849Z,100062.00
2022-09-06T21:52:36.770Z,100060.16
2022-09-06T21:55:04.418Z,100061.44
2022-09-06T21:57:31.596Z,100052.81
2022-09-06T21:59:59.399Z,100055.25
2022-09-06T22:02:28.626Z,100049.78
2022-09-06T22:05:06.596Z,100051.09
2022-09-06T22:07:35.826Z,100058.47
2022-09-06T22:10:03.126Z,100056.56
2022-09-06T22:12:30.568Z,100060.66
2022-09-06T22:14:57.786Z,100060.66
2022-09-06T22:17:24.967Z,100054.28
2022-09-06T22:19:52.410Z,100066.28
2022-09-06T22:22:20.318Z,100064.25
2022-09-06T22:24:47.540Z,100065.69
2022-09-06T22:27:14.953Z,100070.34
2022-09-06T22:29:44.212Z,100062.28
2022-09-06T22:32:11.415Z,100064.25
2022-09-06T22:34:39.340Z,100066.63
2022-09-06T22:37:06.552Z,100059.94
2022-09-06T22:39:33.765Z,100060.19
2022-09-06T22:42:01.852Z,100060.84
2022-09-06T22:44:29.194Z,100055.66
2022-09-06T22:46:56.551Z,100056.00
2022-09-06T22:49:24.279Z,100058.97
2022-09-06T22:51:52.396Z,100054.97
2022-09-06T22:54:19.788Z,100053.13
2022-09-06T22:56:47.238Z,100052.59
2022-09-06T22:59:14.439Z,100058.56
2022-09-06T23:01:42.324Z,100049.81
2022-09-06T23:04:10.084Z,100046.53
2022-09-06T23:06:37.364Z,100045.84
2022-09-06T23:09:04.604Z,100042.22
2022-09-06T23:11:32.635Z,100042.97
2022-09-06T23:14:00.343Z,100049.09
2022-09-06T23:16:29.060Z,100041.28
2022-09-06T23:18:57.222Z,100039.66
2022-09-06T23:21:25.159Z,100039.19
2022-09-06T23:23:53.013Z,100044.63
2022-09-06T23:26:21.657Z,100042.38
2022-09-06T23:28:56.608Z,100044.94
2022-09-06T23:31:25.579Z,100038.19
2022-09-06T23:33:53.536Z,100046.69
2022-09-06T23:36:21.246Z,100041.66
2022-09-06T23:38:49.672Z,100039.50
2022-09-06T23:41:17.203Z,100039.03
2022-09-06T23:43:44.593Z,100033.31
2022-09-06T23:46:12.642Z,100033.69
2022-09-06T23:48:39.933Z,100032.84
2022-09-06T23:51:07.262Z,100036.47
2022-09-06T23:53:35.148Z,100036.41
2022-09-06T23:56:02.564Z,100030.03
2022-09-06T23:58:30.374Z,100031.44
